Terminal Aerodrome Forecast
Issued by NWS Greer, SC

Home | Current Version | Previous Version | Text Only | Print | Product List | Glossary On
Versions: 1 2 3 4 5 6 7 8 9 10 11 12 13 14 15 16 17 18 19 20 21 22 23 24 25 26
000
FTUS42 KGSP 242321
TAFAVL
TAF
KAVL 242321Z 2500/2524 20008KT P6SM FEW060 SCT150 BKN250
     FM250400 17003KT P6SM BKN040
     FM250900 18005KT P6SM BKN020
     FM251000 18004KT 5SM BR BKN008
     FM251300 18005KT P6SM BKN008
     FM251500 18007KT P6SM BKN020
     FM251800 18009KT P6SM BKN035=

USA.gov is the U.S. government's official web portal to all federal, state and local government web resources and services.